sensor_id;sensor_type;location;lat;lon;timestamp;P1;durP1;ratioP1;P2;durP2;ratioP2
38123;SDS011;23934;47.998;9.832;2024-03-02T00:00:20;42.22;;;11.40;;
38123;SDS011;23934;47.998;9.832;2024-03-02T00:02:47;33.42;;;11.90;;
38123;SDS011;23934;47.998;9.832;2024-03-02T00:05:14;38.53;;;11.65;;
38123;SDS011;23934;47.998;9.832;2024-03-02T00:07:41;38.95;;;12.00;;
38123;SDS011;23934;47.998;9.832;2024-03-02T00:10:07;41.13;;;12.30;;
38123;SDS011;23934;47.998;9.832;2024-03-02T00:12:35;31.60;;;11.95;;
38123;SDS011;23934;47.998;9.832;2024-03-02T00:15:03;28.58;;;11.50;;
38123;SDS011;23934;47.998;9.832;2024-03-02T00:17:30;27.25;;;10.05;;
38123;SDS011;23934;47.998;9.832;2024-03-02T00:19:56;24.20;;;9.43;;
38123;SDS011;23934;47.998;9.832;2024-03-02T00:22:22;28.73;;;10.15;;
38123;SDS011;23934;47.998;9.832;2024-03-02T00:24:48;29.25;;;10.65;;
38123;SDS011;23934;47.998;9.832;2024-03-02T00:27:14;24.63;;;9.52;;
38123;SDS011;23934;47.998;9.832;2024-03-02T00:29:40;26.27;;;9.30;;
38123;SDS011;23934;47.998;9.832;2024-03-02T00:32:12;23.48;;;8.77;;
38123;SDS011;23934;47.998;9.832;2024-03-02T00:34:38;27.45;;;9.55;;
38123;SDS011;23934;47.998;9.832;2024-03-02T00:37:04;22.27;;;8.85;;
38123;SDS011;23934;47.998;9.832;2024-03-02T00:39:30;24.30;;;9.20;;
38123;SDS011;23934;47.998;9.832;2024-03-02T00:41:57;29.73;;;9.63;;
38123;SDS011;23934;47.998;9.832;2024-03-02T00:44:23;23.30;;;9.10;;
38123;SDS011;23934;47.998;9.832;2024-03-02T00:46:51;20.52;;;7.80;;
38123;SDS011;23934;47.998;9.832;2024-03-02T00:49:20;35.65;;;9.27;;
38123;SDS011;23934;47.998;9.832;2024-03-02T00:51:50;30.10;;;9.43;;
38123;SDS011;23934;47.998;9.832;2024-03-02T00:54:20;28.75;;;10.32;;
38123;SDS011;23934;47.998;9.832;2024-03-02T00:56:48;34.75;;;10.18;;
38123;SDS011;23934;47.998;9.832;2024-03-02T00:59:14;30.17;;;10.68;;
38123;SDS011;23934;47.998;9.832;2024-03-02T01:01:40;36.90;;;11.02;;
38123;SDS011;23934;47.998;9.832;2024-03-02T01:04:07;33.50;;;11.90;;
38123;SDS011;23934;47.998;9.832;2024-03-02T01:06:33;57.17;;;15.48;;
38123;SDS011;23934;47.998;9.832;2024-03-02T01:09:00;63.35;;;20.20;;
38123;SDS011;23934;47.998;9.832;2024-03-02T01:11:26;42.17;;;13.43;;
38123;SDS011;23934;47.998;9.832;2024-03-02T01:13:52;39.45;;;12.77;;
38123;SDS011;23934;47.998;9.832;2024-03-02T01:16:18;35.88;;;12.18;;
38123;SDS011;23934;47.998;9.832;2024-03-02T01:18:44;32.75;;;11.18;;
38123;SDS011;23934;47.998;9.832;2024-03-02T01:21:10;91.97;;;16.60;;
38123;SDS011;23934;47.998;9.832;2024-03-02T01:23:36;68.55;;;13.35;;
38123;SDS011;23934;47.998;9.832;2024-03-02T01:26:02;106.88;;;15.55;;
38123;SDS011;23934;47.998;9.832;2024-03-02T01:28:28;73.90;;;14.50;;
38123;SDS011;23934;47.998;9.832;2024-03-02T01:30:54;42.83;;;12.48;;
38123;SDS011;23934;47.998;9.832;2024-03-02T01:33:20;44.00;;;15.10;;
38123;SDS011;23934;47.998;9.832;2024-03-02T01:35:47;42.35;;;13.15;;
38123;SDS011;23934;47.998;9.832;2024-03-02T01:38:13;38.45;;;12.55;;
38123;SDS011;23934;47.998;9.832;2024-03-02T01:40:39;43.47;;;13.30;;
38123;SDS011;23934;47.998;9.832;2024-03-02T01:43:05;44.58;;;13.63;;
38123;SDS011;23934;47.998;9.832;2024-03-02T01:45:31;42.20;;;13.10;;
38123;SDS011;23934;47.998;9.832;2024-03-02T01:47:57;35.17;;;11.60;;
38123;SDS011;23934;47.998;9.832;2024-03-02T01:50:31;39.67;;;13.43;;
38123;SDS011;23934;47.998;9.832;2024-03-02T01:52:57;29.77;;;11.80;;
38123;SDS011;23934;47.998;9.832;2024-03-02T01:55:23;37.13;;;12.07;;
38123;SDS011;23934;47.998;9.832;2024-03-02T01:57:49;36.45;;;13.18;;
38123;SDS011;23934;47.998;9.832;2024-03-02T02:00:22;36.78;;;12.68;;
38123;SDS011;23934;47.998;9.832;2024-03-02T02:02:51;34.17;;;11.45;;
38123;SDS011;23934;47.998;9.832;2024-03-02T02:05:17;33.13;;;11.30;;
38123;SDS011;23934;47.998;9.832;2024-03-02T02:07:43;30.38;;;10.27;;
38123;SDS011;23934;47.998;9.832;2024-03-02T02:10:09;25.20;;;9.90;;
38123;SDS011;23934;47.998;9.832;2024-03-02T02:12:36;28.45;;;10.40;;
38123;SDS011;23934;47.998;9.832;2024-03-02T02:15:03;30.80;;;11.30;;
38123;SDS011;23934;47.998;9.832;2024-03-02T02:17:29;26.45;;;10.07;;
38123;SDS011;23934;47.998;9.832;2024-03-02T02:19:55;21.65;;;8.68;;
38123;SDS011;23934;47.998;9.832;2024-03-02T02:22:21;25.80;;;11.18;;
38123;SDS011;23934;47.998;9.832;2024-03-02T02:24:46;23.30;;;9.25;;
38123;SDS011;23934;47.998;9.832;2024-03-02T02:27:12;24.20;;;9.00;;
38123;SDS011;23934;47.998;9.832;2024-03-02T02:29:40;29.20;;;10.63;;
38123;SDS011;23934;47.998;9.832;2024-03-02T02:32:06;27.00;;;10.52;;
38123;SDS011;23934;47.998;9.832;2024-03-02T02:34:32;26.85;;;10.32;;
38123;SDS011;23934;47.998;9.832;2024-03-02T02:36:58;22.20;;;9.38;;
38123;SDS011;23934;47.998;9.832;2024-03-02T02:39:24;27.00;;;10.07;;
38123;SDS011;23934;47.998;9.832;2024-03-02T02:41:50;27.58;;;9.50;;
38123;SDS011;23934;47.998;9.832;2024-03-02T02:44:16;35.67;;;10.00;;
38123;SDS011;23934;47.998;9.832;2024-03-02T02:46:42;36.90;;;11.75;;
38123;SDS011;23934;47.998;9.832;2024-03-02T02:49:08;36.55;;;13.18;;
38123;SDS011;23934;47.998;9.832;2024-03-02T02:51:34;36.67;;;13.20;;
38123;SDS011;23934;47.998;9.832;2024-03-02T02:54:00;35.17;;;12.38;;
38123;SDS011;23934;47.998;9.832;2024-03-02T02:56:26;31.05;;;12.10;;
38123;SDS011;23934;47.998;9.832;2024-03-02T02:58:52;39.15;;;13.45;;
38123;SDS011;23934;47.998;9.832;2024-03-02T03:01:18;43.28;;;13.75;;
38123;SDS011;23934;47.998;9.832;2024-03-02T03:03:44;38.75;;;12.90;;
38123;SDS011;23934;47.998;9.832;2024-03-02T03:06:10;37.85;;;12.38;;
38123;SDS011;23934;47.998;9.832;2024-03-02T03:08:36;34.13;;;12.38;;
38123;SDS011;23934;47.998;9.832;2024-03-02T03:11:02;27.77;;;10.07;;
38123;SDS011;23934;47.998;9.832;2024-03-02T03:13:28;33.13;;;11.00;;
38123;SDS011;23934;47.998;9.832;2024-03-02T03:15:54;32.95;;;10.10;;
38123;SDS011;23934;47.998;9.832;2024-03-02T03:18:20;27.77;;;9.82;;
38123;SDS011;23934;47.998;9.832;2024-03-02T03:20:46;31.00;;;9.65;;
38123;SDS011;23934;47.998;9.832;2024-03-02T03:23:12;24.38;;;8.95;;
38123;SDS011;23934;47.998;9.832;2024-03-02T03:25:41;26.38;;;9.98;;
38123;SDS011;23934;47.998;9.832;2024-03-02T03:28:07;38.38;;;11.27;;
38123;SDS011;23934;47.998;9.832;2024-03-02T03:30:35;30.35;;;9.35;;
38123;SDS011;23934;47.998;9.832;2024-03-02T03:33:01;29.85;;;10.68;;
38123;SDS011;23934;47.998;9.832;2024-03-02T03:35:27;35.13;;;11.55;;
38123;SDS011;23934;47.998;9.832;2024-03-02T03:37:53;25.88;;;10.27;;
38123;SDS011;23934;47.998;9.832;2024-03-02T03:40:19;31.92;;;9.75;;
38123;SDS011;23934;47.998;9.832;2024-03-02T03:42:45;29.13;;;9.30;;
38123;SDS011;23934;47.998;9.832;2024-03-02T03:45:11;28.13;;;8.20;;
38123;SDS011;23934;47.998;9.832;2024-03-02T03:47:37;25.77;;;8.48;;
38123;SDS011;23934;47.998;9.832;2024-03-02T03:50:03;23.92;;;8.98;;
38123;SDS011;23934;47.998;9.832;2024-03-02T03:52:31;21.80;;;8.23;;
38123;SDS011;23934;47.998;9.832;2024-03-02T03:54:58;20.70;;;8.38;;
38123;SDS011;23934;47.998;9.832;2024-03-02T03:57:24;23.10;;;8.55;;
38123;SDS011;23934;47.998;9.832;2024-03-02T03:59:50;20.20;;;8.90;;
38123;SDS011;23934;47.998;9.832;2024-03-02T04:02:16;38.10;;;12.27;;
38123;SDS011;23934;47.998;9.832;2024-03-02T04:04:42;30.85;;;9.98;;
38123;SDS011;23934;47.998;9.832;2024-03-02T04:07:08;30.52;;;10.18;;
38123;SDS011;23934;47.998;9.832;2024-03-02T04:09:34;23.42;;;9.15;;
38123;SDS011;23934;47.998;9.832;2024-03-02T04:12:00;22.23;;;8.88;;
38123;SDS011;23934;47.998;9.832;2024-03-02T04:14:26;27.48;;;9.45;;
38123;SDS011;23934;47.998;9.832;2024-03-02T04:16:52;28.58;;;9.38;;
38123;SDS011;23934;47.998;9.832;2024-03-02T04:19:18;30.35;;;11.38;;
38123;SDS011;23934;47.998;9.832;2024-03-02T04:21:44;33.10;;;10.85;;
38123;SDS011;23934;47.998;9.832;2024-03-02T04:24:10;31.02;;;11.00;;
38123;SDS011;23934;47.998;9.832;2024-03-02T04:26:36;34.78;;;11.23;;
38123;SDS011;23934;47.998;9.832;2024-03-02T04:29:02;37.45;;;11.43;;
38123;SDS011;23934;47.998;9.832;2024-03-02T04:31:28;37.03;;;11.70;;
38123;SDS011;23934;47.998;9.832;2024-03-02T04:33:54;46.70;;;14.20;;
38123;SDS011;23934;47.998;9.832;2024-03-02T04:36:20;54.30;;;15.93;;
38123;SDS011;23934;47.998;9.832;2024-03-02T04:38:48;61.10;;;16.25;;
38123;SDS011;23934;47.998;9.832;2024-03-02T04:41:14;64.28;;;17.05;;
38123;SDS011;23934;47.998;9.832;2024-03-02T04:43:40;61.92;;;14.07;;
38123;SDS011;23934;47.998;9.832;2024-03-02T04:46:06;56.67;;;16.88;;
38123;SDS011;23934;47.998;9.832;2024-03-02T04:48:32;73.85;;;18.23;;
38123;SDS011;23934;47.998;9.832;2024-03-02T04:50:59;57.53;;;17.05;;
38123;SDS011;23934;47.998;9.832;2024-03-02T04:53:25;66.38;;;17.30;;
38123;SDS011;23934;47.998;9.832;2024-03-02T04:55:51;65.93;;;17.58;;
38123;SDS011;23934;47.998;9.832;2024-03-02T05:01:08;55.67;;;13.75;;
38123;SDS011;23934;47.998;9.832;2024-03-02T05:03:35;71.72;;;17.13;;
38123;SDS011;23934;47.998;9.832;2024-03-02T05:06:01;57.45;;;15.88;;
38123;SDS011;23934;47.998;9.832;2024-03-02T05:08:27;63.67;;;17.58;;
38123;SDS011;23934;47.998;9.832;2024-03-02T05:10:53;81.40;;;19.83;;
38123;SDS011;23934;47.998;9.832;2024-03-02T05:13:19;65.65;;;17.77;;
38123;SDS011;23934;47.998;9.832;2024-03-02T05:15:46;66.20;;;18.15;;
38123;SDS011;23934;47.998;9.832;2024-03-02T05:18:11;61.15;;;16.60;;
38123;SDS011;23934;47.998;9.832;2024-03-02T05:20:37;60.78;;;16.42;;
38123;SDS011;23934;47.998;9.832;2024-03-02T05:23:03;58.65;;;17.30;;
38123;SDS011;23934;47.998;9.832;2024-03-02T05:25:29;74.18;;;20.13;;
38123;SDS011;23934;47.998;9.832;2024-03-02T05:27:55;77.30;;;19.40;;
38123;SDS011;23934;47.998;9.832;2024-03-02T05:30:21;79.18;;;18.55;;
38123;SDS011;23934;47.998;9.832;2024-03-02T05:32:47;79.65;;;20.45;;
38123;SDS011;23934;47.998;9.832;2024-03-02T05:35:13;81.65;;;20.13;;
38123;SDS011;23934;47.998;9.832;2024-03-02T05:37:39;71.22;;;17.00;;
38123;SDS011;23934;47.998;9.832;2024-03-02T05:40:05;65.80;;;17.08;;
38123;SDS011;23934;47.998;9.832;2024-03-02T05:42:32;65.40;;;17.63;;
38123;SDS011;23934;47.998;9.832;2024-03-02T05:44:57;61.25;;;17.33;;
38123;SDS011;23934;47.998;9.832;2024-03-02T05:47:23;68.72;;;17.98;;
38123;SDS011;23934;47.998;9.832;2024-03-02T05:49:49;64.28;;;17.23;;
38123;SDS011;23934;47.998;9.832;2024-03-02T05:52:15;68.28;;;17.60;;
38123;SDS011;23934;47.998;9.832;2024-03-02T05:54:41;77.00;;;18.10;;
38123;SDS011;23934;47.998;9.832;2024-03-02T05:57:07;62.45;;;16.02;;
38123;SDS011;23934;47.998;9.832;2024-03-02T05:59:57;60.72;;;18.00;;
38123;SDS011;23934;47.998;9.832;2024-03-02T06:02:23;69.50;;;17.67;;
38123;SDS011;23934;47.998;9.832;2024-03-02T06:04:49;73.57;;;20.50;;
38123;SDS011;23934;47.998;9.832;2024-03-02T06:07:15;87.88;;;20.35;;
38123;SDS011;23934;47.998;9.832;2024-03-02T06:09:41;72.25;;;19.58;;
38123;SDS011;23934;47.998;9.832;2024-03-02T06:12:07;74.70;;;19.77;;
38123;SDS011;23934;47.998;9.832;2024-03-02T06:14:33;77.05;;;19.45;;
38123;SDS011;23934;47.998;9.832;2024-03-02T06:16:59;93.05;;;22.27;;
38123;SDS011;23934;47.998;9.832;2024-03-02T06:19:25;104.60;;;22.02;;
38123;SDS011;23934;47.998;9.832;2024-03-02T06:21:52;82.50;;;23.00;;
38123;SDS011;23934;47.998;9.832;2024-03-02T06:24:18;96.82;;;21.67;;
38123;SDS011;23934;47.998;9.832;2024-03-02T06:26:44;110.28;;;23.35;;
38123;SDS011;23934;47.998;9.832;2024-03-02T06:29:10;96.55;;;23.88;;
38123;SDS011;23934;47.998;9.832;2024-03-02T06:31:36;94.82;;;21.05;;
38123;SDS011;23934;47.998;9.832;2024-03-02T06:34:02;97.63;;;28.42;;
38123;SDS011;23934;47.998;9.832;2024-03-02T06:36:29;91.25;;;20.98;;
38123;SDS011;23934;47.998;9.832;2024-03-02T06:38:55;95.30;;;22.92;;
38123;SDS011;23934;47.998;9.832;2024-03-02T06:41:21;86.97;;;22.05;;
38123;SDS011;23934;47.998;9.832;2024-03-02T06:43:47;86.97;;;22.85;;
38123;SDS011;23934;47.998;9.832;2024-03-02T06:46:13;91.22;;;20.67;;
38123;SDS011;23934;47.998;9.832;2024-03-02T06:48:40;75.47;;;20.52;;
38123;SDS011;23934;47.998;9.832;2024-03-02T06:51:06;72.78;;;20.38;;
38123;SDS011;23934;47.998;9.832;2024-03-02T06:53:32;74.43;;;20.67;;
38123;SDS011;23934;47.998;9.832;2024-03-02T06:55:58;76.43;;;19.85;;
38123;SDS011;23934;47.998;9.832;2024-03-02T06:58:24;76.10;;;20.95;;
38123;SDS011;23934;47.998;9.832;2024-03-02T07:00:50;84.20;;;22.40;;
38123;SDS011;23934;47.998;9.832;2024-03-02T07:03:19;91.88;;;20.45;;
38123;SDS011;23934;47.998;9.832;2024-03-02T07:05:44;81.53;;;20.60;;
38123;SDS011;23934;47.998;9.832;2024-03-02T07:08:10;91.57;;;21.05;;
38123;SDS011;23934;47.998;9.832;2024-03-02T07:10:36;103.55;;;21.88;;
38123;SDS011;23934;47.998;9.832;2024-03-02T07:13:02;107.15;;;24.05;;
38123;SDS011;23934;47.998;9.832;2024-03-02T07:15:28;125.38;;;25.15;;
38123;SDS011;23934;47.998;9.832;2024-03-02T07:18:13;113.85;;;24.65;;
38123;SDS011;23934;47.998;9.832;2024-03-02T07:20:39;109.57;;;24.63;;
38123;SDS011;23934;47.998;9.832;2024-03-02T07:23:05;105.03;;;24.45;;
38123;SDS011;23934;47.998;9.832;2024-03-02T07:25:31;96.13;;;24.05;;
38123;SDS011;23934;47.998;9.832;2024-03-02T07:27:57;116.82;;;27.50;;
38123;SDS011;23934;47.998;9.832;2024-03-02T07:30:23;120.20;;;28.27;;
38123;SDS011;23934;47.998;9.832;2024-03-02T07:32:52;102.95;;;26.83;;
38123;SDS011;23934;47.998;9.832;2024-03-02T07:35:18;110.93;;;26.92;;
38123;SDS011;23934;47.998;9.832;2024-03-02T07:37:44;122.28;;;27.23;;
38123;SDS011;23934;47.998;9.832;2024-03-02T07:40:10;117.45;;;29.40;;
38123;SDS011;23934;47.998;9.832;2024-03-02T07:42:37;122.45;;;30.60;;
38123;SDS011;23934;47.998;9.832;2024-03-02T07:45:04;129.60;;;29.95;;
38123;SDS011;23934;47.998;9.832;2024-03-02T07:47:30;131.82;;;28.20;;
38123;SDS011;23934;47.998;9.832;2024-03-02T07:49:56;119.30;;;28.40;;
38123;SDS011;23934;47.998;9.832;2024-03-02T07:52:22;123.82;;;29.08;;
38123;SDS011;23934;47.998;9.832;2024-03-02T07:54:48;115.60;;;29.15;;
38123;SDS011;23934;47.998;9.832;2024-03-02T07:57:14;115.45;;;27.88;;
38123;SDS011;23934;47.998;9.832;2024-03-02T07:59:39;109.78;;;26.40;;
38123;SDS011;23934;47.998;9.832;2024-03-02T08:02:06;96.65;;;24.85;;
38123;SDS011;23934;47.998;9.832;2024-03-02T08:04:32;117.97;;;26.23;;
38123;SDS011;23934;47.998;9.832;2024-03-02T08:06:58;126.93;;;27.00;;
38123;SDS011;23934;47.998;9.832;2024-03-02T08:09:24;112.25;;;24.75;;
38123;SDS011;23934;47.998;9.832;2024-03-02T08:11:50;110.53;;;25.55;;
38123;SDS011;23934;47.998;9.832;2024-03-02T08:14:16;119.78;;;26.88;;
38123;SDS011;23934;47.998;9.832;2024-03-02T08:16:42;146.15;;;35.28;;
38123;SDS011;23934;47.998;9.832;2024-03-02T08:19:08;115.20;;;27.30;;
38123;SDS011;23934;47.998;9.832;2024-03-02T08:21:35;108.90;;;27.48;;
38123;SDS011;23934;47.998;9.832;2024-03-02T08:24:01;103.38;;;26.30;;
38123;SDS011;23934;47.998;9.832;2024-03-02T08:26:27;100.60;;;25.80;;
38123;SDS011;23934;47.998;9.832;2024-03-02T08:28:54;86.75;;;26.88;;
38123;SDS011;23934;47.998;9.832;2024-03-02T08:31:20;56.70;;;19.85;;
38123;SDS011;23934;47.998;9.832;2024-03-02T08:33:46;36.42;;;14.32;;
38123;SDS011;23934;47.998;9.832;2024-03-02T08:36:12;26.88;;;11.95;;
38123;SDS011;23934;47.998;9.832;2024-03-02T08:38:38;26.05;;;11.55;;
38123;SDS011;23934;47.998;9.832;2024-03-02T08:41:04;21.90;;;9.77;;
38123;SDS011;23934;47.998;9.832;2024-03-02T08:43:30;17.48;;;7.57;;
38123;SDS011;23934;47.998;9.832;2024-03-02T08:45:56;22.75;;;8.95;;
38123;SDS011;23934;47.998;9.832;2024-03-02T08:48:22;21.65;;;8.40;;
38123;SDS011;23934;47.998;9.832;2024-03-02T08:50:48;20.50;;;9.43;;
38123;SDS011;23934;47.998;9.832;2024-03-02T08:53:14;18.00;;;7.72;;
38123;SDS011;23934;47.998;9.832;2024-03-02T08:55:44;17.13;;;7.32;;
38123;SDS011;23934;47.998;9.832;2024-03-02T08:58:10;17.65;;;7.63;;
38123;SDS011;23934;47.998;9.832;2024-03-02T09:00:36;15.98;;;7.05;;
38123;SDS011;23934;47.998;9.832;2024-03-02T09:03:02;14.70;;;6.38;;
38123;SDS011;23934;47.998;9.832;2024-03-02T09:05:29;11.60;;;5.55;;
38123;SDS011;23934;47.998;9.832;2024-03-02T09:07:55;11.68;;;4.68;;
38123;SDS011;23934;47.998;9.832;2024-03-02T09:10:21;14.25;;;5.82;;
38123;SDS011;23934;47.998;9.832;2024-03-02T09:12:47;13.23;;;6.00;;
38123;SDS011;23934;47.998;9.832;2024-03-02T09:15:13;10.32;;;4.88;;
38123;SDS011;23934;47.998;9.832;2024-03-02T09:17:39;10.73;;;4.70;;
38123;SDS011;23934;47.998;9.832;2024-03-02T09:20:05;10.48;;;5.10;;
38123;SDS011;23934;47.998;9.832;2024-03-02T09:22:31;8.63;;;4.25;;
38123;SDS011;23934;47.998;9.832;2024-03-02T09:24:57;8.25;;;4.25;;
38123;SDS011;23934;47.998;9.832;2024-03-02T09:27:24;11.40;;;4.93;;
38123;SDS011;23934;47.998;9.832;2024-03-02T09:29:50;8.43;;;4.53;;
38123;SDS011;23934;47.998;9.832;2024-03-02T09:32:16;9.75;;;4.03;;
38123;SDS011;23934;47.998;9.832;2024-03-02T09:34:42;8.02;;;3.78;;
38123;SDS011;23934;47.998;9.832;2024-03-02T09:37:08;6.53;;;3.20;;
38123;SDS011;23934;47.998;9.832;2024-03-02T09:39:34;7.63;;;3.00;;
38123;SDS011;23934;47.998;9.832;2024-03-02T09:42:00;7.32;;;3.25;;
38123;SDS011;23934;47.998;9.832;2024-03-02T09:44:26;7.93;;;3.72;;
38123;SDS011;23934;47.998;9.832;2024-03-02T09:46:52;4.72;;;2.38;;
38123;SDS011;23934;47.998;9.832;2024-03-02T09:49:18;6.30;;;2.10;;
38123;SDS011;23934;47.998;9.832;2024-03-02T09:51:46;3.55;;;1.50;;
38123;SDS011;23934;47.998;9.832;2024-03-02T09:54:12;2.65;;;1.60;;
38123;SDS011;23934;47.998;9.832;2024-03-02T09:56:38;3.10;;;1.70;;
38123;SDS011;23934;47.998;9.832;2024-03-02T09:59:04;2.35;;;1.33;;
38123;SDS011;23934;47.998;9.832;2024-03-02T10:01:30;6.55;;;2.00;;
38123;SDS011;23934;47.998;9.832;2024-03-02T10:04:00;3.92;;;1.65;;
38123;SDS011;23934;47.998;9.832;2024-03-02T10:06:26;4.43;;;1.80;;
38123;SDS011;23934;47.998;9.832;2024-03-02T10:08:53;4.88;;;2.47;;
38123;SDS011;23934;47.998;9.832;2024-03-02T10:14:03;6.40;;;2.00;;
38123;SDS011;23934;47.998;9.832;2024-03-02T10:16:30;4.95;;;2.10;;
38123;SDS011;23934;47.998;9.832;2024-03-02T10:18:56;4.80;;;2.47;;
38123;SDS011;23934;47.998;9.832;2024-03-02T10:21:22;3.72;;;2.08;;
38123;SDS011;23934;47.998;9.832;2024-03-02T10:23:49;3.60;;;2.10;;
38123;SDS011;23934;47.998;9.832;2024-03-02T10:26:18;5.05;;;2.28;;
38123;SDS011;23934;47.998;9.832;2024-03-02T10:28:47;5.97;;;2.08;;
38123;SDS011;23934;47.998;9.832;2024-03-02T10:31:13;4.60;;;2.20;;
38123;SDS011;23934;47.998;9.832;2024-03-02T10:33:39;3.38;;;2.17;;
38123;SDS011;23934;47.998;9.832;2024-03-02T10:36:05;4.20;;;2.47;;
38123;SDS011;23934;47.998;9.832;2024-03-02T10:38:32;4.18;;;2.35;;
38123;SDS011;23934;47.998;9.832;2024-03-02T10:40:58;4.85;;;1.85;;
38123;SDS011;23934;47.998;9.832;2024-03-02T10:43:24;5.93;;;2.38;;
38123;SDS011;23934;47.998;9.832;2024-03-02T10:45:51;4.40;;;2.15;;
38123;SDS011;23934;47.998;9.832;2024-03-02T10:48:18;5.20;;;1.90;;
38123;SDS011;23934;47.998;9.832;2024-03-02T10:50:44;4.32;;;2.20;;
38123;SDS011;23934;47.998;9.832;2024-03-02T10:53:10;5.65;;;1.90;;
38123;SDS011;23934;47.998;9.832;2024-03-02T10:55:36;4.65;;;2.22;;
38123;SDS011;23934;47.998;9.832;2024-03-02T10:58:04;3.28;;;1.95;;
38123;SDS011;23934;47.998;9.832;2024-03-02T11:00:33;4.53;;;2.25;;
38123;SDS011;23934;47.998;9.832;2024-03-02T11:03:06;4.25;;;1.90;;
38123;SDS011;23934;47.998;9.832;2024-03-02T11:05:36;5.30;;;2.88;;
38123;SDS011;23934;47.998;9.832;2024-03-02T11:08:02;3.00;;;1.80;;
38123;SDS011;23934;47.998;9.832;2024-03-02T11:10:33;2.40;;;1.60;;
38123;SDS011;23934;47.998;9.832;2024-03-02T11:13:02;3.20;;;1.48;;
38123;SDS011;23934;47.998;9.832;2024-03-02T11:15:29;2.45;;;1.60;;
38123;SDS011;23934;47.998;9.832;2024-03-02T11:17:56;1.85;;;1.40;;
38123;SDS011;23934;47.998;9.832;2024-03-02T11:20:22;4.78;;;1.70;;
38123;SDS011;23934;47.998;9.832;2024-03-02T11:22:49;3.17;;;1.90;;
38123;SDS011;23934;47.998;9.832;2024-03-02T11:25:27;5.15;;;2.38;;
38123;SDS011;23934;47.998;9.832;2024-03-02T11:32:58;5.75;;;1.38;;
38123;SDS011;23934;47.998;9.832;2024-03-02T11:35:25;3.05;;;1.38;;
38123;SDS011;23934;47.998;9.832;2024-03-02T11:37:51;2.80;;;0.77;;
38123;SDS011;23934;47.998;9.832;2024-03-02T11:40:25;0.68;;;0.60;;
38123;SDS011;23934;47.998;9.832;2024-03-02T11:42:52;1.40;;;0.90;;
38123;SDS011;23934;47.998;9.832;2024-03-02T11:45:25;1.52;;;0.88;;
38123;SDS011;23934;47.998;9.832;2024-03-02T11:47:52;1.20;;;0.70;;
38123;SDS011;23934;47.998;9.832;2024-03-02T11:50:35;1.45;;;1.08;;
38123;SDS011;23934;47.998;9.832;2024-03-02T11:53:02;2.65;;;1.27;;
38123;SDS011;23934;47.998;9.832;2024-03-02T11:55:31;3.47;;;1.42;;
38123;SDS011;23934;47.998;9.832;2024-03-02T11:57:59;5.30;;;1.33;;
38123;SDS011;23934;47.998;9.832;2024-03-02T12:00:25;2.35;;;1.30;;
38123;SDS011;23934;47.998;9.832;2024-03-02T12:05:27;2.10;;;1.42;;
38123;SDS011;23934;47.998;9.832;2024-03-02T12:07:59;4.20;;;1.75;;
38123;SDS011;23934;47.998;9.832;2024-03-02T12:10:26;2.75;;;1.75;;
38123;SDS011;23934;47.998;9.832;2024-03-02T12:12:58;2.00;;;1.45;;
38123;SDS011;23934;47.998;9.832;2024-03-02T12:15:29;2.35;;;1.40;;
38123;SDS011;23934;47.998;9.832;2024-03-02T12:17:56;2.90;;;1.48;;
38123;SDS011;23934;47.998;9.832;2024-03-02T12:20:22;2.72;;;1.50;;
38123;SDS011;23934;47.998;9.832;2024-03-02T12:22:51;4.47;;;1.90;;
38123;SDS011;23934;47.998;9.832;2024-03-02T12:25:18;2.65;;;1.60;;
38123;SDS011;23934;47.998;9.832;2024-03-02T12:27:44;2.15;;;1.70;;
38123;SDS011;23934;47.998;9.832;2024-03-02T12:30:11;4.63;;;1.98;;
38123;SDS011;23934;47.998;9.832;2024-03-02T12:32:39;3.38;;;1.77;;
38123;SDS011;23934;47.998;9.832;2024-03-02T12:35:05;3.72;;;1.75;;
38123;SDS011;23934;47.998;9.832;2024-03-02T12:37:31;4.43;;;1.90;;
38123;SDS011;23934;47.998;9.832;2024-03-02T12:39:57;3.95;;;1.90;;
38123;SDS011;23934;47.998;9.832;2024-03-02T12:42:24;2.50;;;1.65;;
38123;SDS011;23934;47.998;9.832;2024-03-02T12:44:53;4.80;;;1.60;;
38123;SDS011;23934;47.998;9.832;2024-03-02T12:47:20;4.85;;;1.40;;
38123;SDS011;23934;47.998;9.832;2024-03-02T12:49:46;3.38;;;1.88;;
38123;SDS011;23934;47.998;9.832;2024-03-02T12:52:12;3.65;;;2.00;;
38123;SDS011;23934;47.998;9.832;2024-03-02T12:54:38;2.83;;;1.70;;
38123;SDS011;23934;47.998;9.832;2024-03-02T12:57:04;6.63;;;2.08;;
38123;SDS011;23934;47.998;9.832;2024-03-02T12:59:30;2.60;;;1.52;;
38123;SDS011;23934;47.998;9.832;2024-03-02T13:01:56;2.60;;;1.65;;
38123;SDS011;23934;47.998;9.832;2024-03-02T13:04:24;4.20;;;2.20;;
38123;SDS011;23934;47.998;9.832;2024-03-02T13:06:50;3.05;;;1.77;;
38123;SDS011;23934;47.998;9.832;2024-03-02T13:09:16;6.32;;;2.00;;
38123;SDS011;23934;47.998;9.832;2024-03-02T13:11:42;3.55;;;1.90;;
38123;SDS011;23934;47.998;9.832;2024-03-02T13:14:10;3.92;;;2.33;;
38123;SDS011;23934;47.998;9.832;2024-03-02T13:16:39;2.40;;;1.60;;
38123;SDS011;23934;47.998;9.832;2024-03-02T13:19:11;3.10;;;1.80;;
38123;SDS011;23934;47.998;9.832;2024-03-02T13:24:03;3.92;;;2.35;;
38123;SDS011;23934;47.998;9.832;2024-03-02T13:26:30;5.03;;;2.10;;
38123;SDS011;23934;47.998;9.832;2024-03-02T13:28:56;3.97;;;2.25;;
38123;SDS011;23934;47.998;9.832;2024-03-02T13:31:21;5.80;;;2.45;;
38123;SDS011;23934;47.998;9.832;2024-03-02T13:33:47;4.10;;;2.60;;
38123;SDS011;23934;47.998;9.832;2024-03-02T13:36:14;5.15;;;2.38;;
38123;SDS011;23934;47.998;9.832;2024-03-02T13:38:39;4.45;;;2.58;;
38123;SDS011;23934;47.998;9.832;2024-03-02T13:41:05;5.75;;;2.72;;
38123;SDS011;23934;47.998;9.832;2024-03-02T13:43:31;16.45;;;2.97;;
38123;SDS011;23934;47.998;9.832;2024-03-02T13:45:58;4.50;;;2.70;;
38123;SDS011;23934;47.998;9.832;2024-03-02T13:48:24;3.95;;;2.08;;
38123;SDS011;23934;47.998;9.832;2024-03-02T13:50:52;4.20;;;1.65;;
38123;SDS011;23934;47.998;9.832;2024-03-02T13:53:19;4.13;;;1.80;;
38123;SDS011;23934;47.998;9.832;2024-03-02T13:55:45;2.92;;;1.88;;
38123;SDS011;23934;47.998;9.832;2024-03-02T13:58:11;3.60;;;1.75;;
38123;SDS011;23934;47.998;9.832;2024-03-02T14:00:38;3.65;;;1.75;;
38123;SDS011;23934;47.998;9.832;2024-03-02T14:03:04;2.78;;;1.58;;
38123;SDS011;23934;47.998;9.832;2024-03-02T14:05:30;4.43;;;1.80;;
38123;SDS011;23934;47.998;9.832;2024-03-02T14:07:56;2.97;;;1.52;;
38123;SDS011;23934;47.998;9.832;2024-03-02T14:10:22;3.72;;;1.45;;
38123;SDS011;23934;47.998;9.832;2024-03-02T14:12:48;3.72;;;1.50;;
38123;SDS011;23934;47.998;9.832;2024-03-02T14:15:14;2.03;;;1.45;;
38123;SDS011;23934;47.998;9.832;2024-03-02T14:17:40;2.72;;;1.63;;
38123;SDS011;23934;47.998;9.832;2024-03-02T14:20:07;2.63;;;1.60;;
38123;SDS011;23934;47.998;9.832;2024-03-02T14:22:36;3.95;;;1.30;;
38123;SDS011;23934;47.998;9.832;2024-03-02T14:25:02;3.58;;;1.60;;
38123;SDS011;23934;47.998;9.832;2024-03-02T14:27:28;3.80;;;1.60;;
38123;SDS011;23934;47.998;9.832;2024-03-02T14:29:54;4.03;;;1.88;;
38123;SDS011;23934;47.998;9.832;2024-03-02T14:32:20;2.80;;;1.50;;
38123;SDS011;23934;47.998;9.832;2024-03-02T14:34:46;4.57;;;2.20;;
38123;SDS011;23934;47.998;9.832;2024-03-02T14:37:13;2.97;;;1.77;;
38123;SDS011;23934;47.998;9.832;2024-03-02T14:39:39;9.38;;;2.45;;
38123;SDS011;23934;47.998;9.832;2024-03-02T14:42:11;3.47;;;1.85;;